Decoded Metar for KRDG (READING in PA, USA) (IATA:RDG) | Meteo·Mobile Aviation Weather
aviador You're here:

KRDG Decoded Metar

READING in PA, USA
Report Time2018-09-19 16:54:00
UTC Time2018-09-19 17:09:34
Flight Rules vfr VFR
Wind350° at 11 kt
W.Decomp.*RWY 36: 11.0 kt HW 0.4 kt RCW
RWY 31: 6.8 kt HW 8.7 kt RCW
W.Rank350° ranks 10
Current wind is above 350° avg. (6.4)
Visibility9999 m
Phenomena:N/A
Clouds:Few 036 Hf
Expected CloudBase > 3,200 ft AGL from Temp-Dew spread
CeilingNone
Temp27°C (ISA +13)
Dew Point19°C (62% RH)
Heat Index28.2°C
AAT26.3°C
QNH1014 hPa
Density Alt2,080 ft
Elevation358 ft
Report Wrong Elevation
Raw Report
KRDG 191654Z 35011KT 10SM FEW036 27/19 A2994 RMK AO2 SLP142
T02720189=

Extra information for KRDG:More info

Metar Taf Metar & Taf Last 4 Metars F.Rules Stats Wind Profile Meteogram Temp Stats Airport Information Weather charts Add Link Nearby VenuesMetar ALERT Operation Metar Decoded Social comments

AIRNAV info for KRDG